sensor_id;sensor_type;location;lat;lon;timestamp;P1;durP1;ratioP1;P2;durP2;ratioP2
55641;SDS011;41509;53.108;6.100;2022-10-16T00:00:43;3.25;;;1.08;;
55641;SDS011;41509;53.108;6.100;2022-10-16T00:03:09;4.22;;;1.10;;
55641;SDS011;41509;53.108;6.100;2022-10-16T00:05:40;7.22;;;1.10;;
55641;SDS011;41509;53.108;6.100;2022-10-16T00:08:47;5.97;;;1.02;;
55641;SDS011;41509;53.108;6.100;2022-10-16T00:11:16;6.03;;;1.15;;
55641;SDS011;41509;53.108;6.100;2022-10-16T00:13:44;2.40;;;1.00;;
55641;SDS011;41509;53.108;6.100;2022-10-16T00:16:11;3.85;;;1.00;;
55641;SDS011;41509;53.108;6.100;2022-10-16T00:18:38;5.22;;;1.42;;
55641;SDS011;41509;53.108;6.100;2022-10-16T00:21:10;4.97;;;1.08;;
55641;SDS011;41509;53.108;6.100;2022-10-16T00:23:41;3.15;;;0.80;;
55641;SDS011;41509;53.108;6.100;2022-10-16T00:26:09;11.15;;;1.55;;
55641;SDS011;41509;53.108;6.100;2022-10-16T00:29:12;4.68;;;1.08;;
55641;SDS011;41509;53.108;6.100;2022-10-16T00:31:39;6.32;;;0.88;;
55641;SDS011;41509;53.108;6.100;2022-10-16T00:37:00;3.13;;;1.08;;
55641;SDS011;41509;53.108;6.100;2022-10-16T00:39:26;7.30;;;1.10;;
55641;SDS011;41509;53.108;6.100;2022-10-16T00:41:51;4.10;;;0.80;;
55641;SDS011;41509;53.108;6.100;2022-10-16T00:50:13;2.25;;;0.77;;
55641;SDS011;41509;53.108;6.100;2022-10-16T00:52:55;5.65;;;1.25;;
55641;SDS011;41509;53.108;6.100;2022-10-16T00:55:22;1.85;;;0.73;;
55641;SDS011;41509;53.108;6.100;2022-10-16T00:57:48;1.77;;;0.70;;
55641;SDS011;41509;53.108;6.100;2022-10-16T01:00:17;1.73;;;0.60;;
55641;SDS011;41509;53.108;6.100;2022-10-16T01:02:51;3.17;;;0.88;;
55641;SDS011;41509;53.108;6.100;2022-10-16T01:05:19;2.53;;;0.70;;
55641;SDS011;41509;53.108;6.100;2022-10-16T01:11:22;2.63;;;0.63;;
55641;SDS011;41509;53.108;6.100;2022-10-16T01:13:30;3.38;;;0.90;;
55641;SDS011;41509;53.108;6.100;2022-10-16T01:16:12;4.25;;;0.80;;
55641;SDS011;41509;53.108;6.100;2022-10-16T01:18:46;1.83;;;0.75;;
55641;SDS011;41509;53.108;6.100;2022-10-16T01:21:25;4.43;;;1.00;;
55641;SDS011;41509;53.108;6.100;2022-10-16T01:29:38;2.83;;;0.80;;
55641;SDS011;41509;53.108;6.100;2022-10-16T01:34:50;2.63;;;0.55;;
55641;SDS011;41509;53.108;6.100;2022-10-16T01:37:25;1.60;;;0.85;;
55641;SDS011;41509;53.108;6.100;2022-10-16T01:39:58;2.63;;;1.00;;
55641;SDS011;41509;53.108;6.100;2022-10-16T01:42:29;3.40;;;0.90;;
55641;SDS011;41509;53.108;6.100;2022-10-16T01:45:00;2.35;;;0.85;;
55641;SDS011;41509;53.108;6.100;2022-10-16T01:47:27;6.97;;;0.93;;
55641;SDS011;41509;53.108;6.100;2022-10-16T01:49:56;1.65;;;0.70;;
55641;SDS011;41509;53.108;6.100;2022-10-16T01:52:24;2.13;;;1.00;;
55641;SDS011;41509;53.108;6.100;2022-10-16T01:54:52;3.85;;;1.00;;
55641;SDS011;41509;53.108;6.100;2022-10-16T01:57:20;4.28;;;0.95;;
55641;SDS011;41509;53.108;6.100;2022-10-16T01:59:50;3.60;;;0.70;;
55641;SDS011;41509;53.108;6.100;2022-10-16T02:02:18;2.38;;;0.98;;
55641;SDS011;41509;53.108;6.100;2022-10-16T02:04:51;3.97;;;0.90;;
55641;SDS011;41509;53.108;6.100;2022-10-16T02:07:22;4.28;;;1.30;;
55641;SDS011;41509;53.108;6.100;2022-10-16T02:09:48;1.75;;;0.88;;
55641;SDS011;41509;53.108;6.100;2022-10-16T02:12:26;5.93;;;0.90;;
55641;SDS011;41509;53.108;6.100;2022-10-16T02:14:55;3.42;;;1.48;;
55641;SDS011;41509;53.108;6.100;2022-10-16T02:17:21;2.72;;;0.70;;
55641;SDS011;41509;53.108;6.100;2022-10-16T02:19:47;2.00;;;0.90;;
55641;SDS011;41509;53.108;6.100;2022-10-16T02:22:16;3.10;;;0.80;;
55641;SDS011;41509;53.108;6.100;2022-10-16T02:24:54;3.00;;;0.90;;
55641;SDS011;41509;53.108;6.100;2022-10-16T02:27:51;3.50;;;0.90;;
55641;SDS011;41509;53.108;6.100;2022-10-16T02:33:05;2.78;;;0.70;;
55641;SDS011;41509;53.108;6.100;2022-10-16T02:35:34;2.97;;;0.88;;
55641;SDS011;41509;53.108;6.100;2022-10-16T02:38:00;3.50;;;0.98;;
55641;SDS011;41509;53.108;6.100;2022-10-16T02:40:26;2.63;;;1.00;;
55641;SDS011;41509;53.108;6.100;2022-10-16T02:42:53;1.98;;;0.90;;
55641;SDS011;41509;53.108;6.100;2022-10-16T02:45:20;4.03;;;1.00;;
55641;SDS011;41509;53.108;6.100;2022-10-16T02:50:12;1.27;;;0.70;;
55641;SDS011;41509;53.108;6.100;2022-10-16T02:52:38;2.70;;;0.90;;
55641;SDS011;41509;53.108;6.100;2022-10-16T02:55:04;4.55;;;1.00;;
55641;SDS011;41509;53.108;6.100;2022-10-16T02:57:30;1.45;;;0.82;;
55641;SDS011;41509;53.108;6.100;2022-10-16T02:59:56;3.78;;;1.00;;
55641;SDS011;41509;53.108;6.100;2022-10-16T03:02:22;1.38;;;0.68;;
55641;SDS011;41509;53.108;6.100;2022-10-16T03:04:48;3.30;;;1.00;;
55641;SDS011;41509;53.108;6.100;2022-10-16T03:07:14;2.65;;;0.95;;
55641;SDS011;41509;53.108;6.100;2022-10-16T03:09:40;2.65;;;1.17;;
55641;SDS011;41509;53.108;6.100;2022-10-16T03:12:05;9.37;;;1.00;;
55641;SDS011;41509;53.108;6.100;2022-10-16T03:14:31;2.70;;;0.90;;
55641;SDS011;41509;53.108;6.100;2022-10-16T03:16:57;2.83;;;1.10;;
55641;SDS011;41509;53.108;6.100;2022-10-16T03:19:23;3.27;;;0.87;;
55641;SDS011;41509;53.108;6.100;2022-10-16T03:21:48;3.33;;;0.80;;
55641;SDS011;41509;53.108;6.100;2022-10-16T03:24:14;2.57;;;0.60;;
55641;SDS011;41509;53.108;6.100;2022-10-16T03:26:40;2.22;;;0.82;;
55641;SDS011;41509;53.108;6.100;2022-10-16T03:29:05;1.60;;;0.80;;
55641;SDS011;41509;53.108;6.100;2022-10-16T03:31:32;3.47;;;0.90;;
55641;SDS011;41509;53.108;6.100;2022-10-16T03:33:57;2.90;;;1.30;;
55641;SDS011;41509;53.108;6.100;2022-10-16T03:36:23;2.10;;;0.93;;
55641;SDS011;41509;53.108;6.100;2022-10-16T03:38:49;1.73;;;0.83;;
55641;SDS011;41509;53.108;6.100;2022-10-16T03:41:14;2.70;;;0.82;;
55641;SDS011;41509;53.108;6.100;2022-10-16T03:43:40;2.65;;;1.05;;
55641;SDS011;41509;53.108;6.100;2022-10-16T03:46:06;2.58;;;0.77;;
55641;SDS011;41509;53.108;6.100;2022-10-16T03:48:31;1.40;;;0.77;;
55641;SDS011;41509;53.108;6.100;2022-10-16T03:50:57;3.60;;;0.75;;
55641;SDS011;41509;53.108;6.100;2022-10-16T03:53:23;7.40;;;1.15;;
55641;SDS011;41509;53.108;6.100;2022-10-16T03:55:49;1.35;;;0.82;;
55641;SDS011;41509;53.108;6.100;2022-10-16T03:58:14;4.88;;;1.15;;
55641;SDS011;41509;53.108;6.100;2022-10-16T04:00:41;1.80;;;0.77;;
55641;SDS011;41509;53.108;6.100;2022-10-16T04:03:07;3.10;;;0.80;;
55641;SDS011;41509;53.108;6.100;2022-10-16T04:05:33;4.00;;;0.68;;
55641;SDS011;41509;53.108;6.100;2022-10-16T04:07:59;2.22;;;0.90;;
55641;SDS011;41509;53.108;6.100;2022-10-16T04:10:25;1.83;;;0.90;;
55641;SDS011;41509;53.108;6.100;2022-10-16T04:12:50;4.27;;;0.80;;
55641;SDS011;41509;53.108;6.100;2022-10-16T04:15:16;1.07;;;0.60;;
55641;SDS011;41509;53.108;6.100;2022-10-16T04:17:42;3.88;;;1.15;;
55641;SDS011;41509;53.108;6.100;2022-10-16T04:20:07;2.05;;;0.77;;
55641;SDS011;41509;53.108;6.100;2022-10-16T04:22:33;1.55;;;0.73;;
55641;SDS011;41509;53.108;6.100;2022-10-16T04:24:59;3.23;;;1.00;;
55641;SDS011;41509;53.108;6.100;2022-10-16T04:27:24;2.77;;;0.80;;
55641;SDS011;41509;53.108;6.100;2022-10-16T04:29:50;3.60;;;0.90;;
55641;SDS011;41509;53.108;6.100;2022-10-16T04:32:16;3.30;;;1.00;;
55641;SDS011;41509;53.108;6.100;2022-10-16T04:34:41;3.90;;;1.27;;
55641;SDS011;41509;53.108;6.100;2022-10-16T04:37:07;3.97;;;1.00;;
55641;SDS011;41509;53.108;6.100;2022-10-16T04:39:33;4.47;;;0.80;;
55641;SDS011;41509;53.108;6.100;2022-10-16T04:41:58;2.92;;;0.98;;
55641;SDS011;41509;53.108;6.100;2022-10-16T04:44:24;2.37;;;0.90;;
55641;SDS011;41509;53.108;6.100;2022-10-16T04:46:50;3.70;;;0.80;;
55641;SDS011;41509;53.108;6.100;2022-10-16T04:51:41;3.28;;;0.80;;
55641;SDS011;41509;53.108;6.100;2022-10-16T04:54:08;3.53;;;1.10;;
55641;SDS011;41509;53.108;6.100;2022-10-16T04:56:34;2.10;;;0.98;;
55641;SDS011;41509;53.108;6.100;2022-10-16T04:59:07;5.35;;;1.05;;
55641;SDS011;41509;53.108;6.100;2022-10-16T05:01:33;2.70;;;0.73;;
55641;SDS011;41509;53.108;6.100;2022-10-16T05:03:59;8.57;;;1.27;;
55641;SDS011;41509;53.108;6.100;2022-10-16T05:06:24;2.03;;;0.73;;
55641;SDS011;41509;53.108;6.100;2022-10-16T05:08:50;2.30;;;0.90;;
55641;SDS011;41509;53.108;6.100;2022-10-16T05:11:16;4.25;;;1.23;;
55641;SDS011;41509;53.108;6.100;2022-10-16T05:13:41;4.30;;;1.20;;
55641;SDS011;41509;53.108;6.100;2022-10-16T05:16:07;3.70;;;1.07;;
55641;SDS011;41509;53.108;6.100;2022-10-16T05:18:33;3.27;;;1.30;;
55641;SDS011;41509;53.108;6.100;2022-10-16T05:20:58;2.87;;;1.10;;
55641;SDS011;41509;53.108;6.100;2022-10-16T05:23:24;4.10;;;1.37;;
55641;SDS011;41509;53.108;6.100;2022-10-16T05:25:53;4.17;;;1.10;;
55641;SDS011;41509;53.108;6.100;2022-10-16T05:28:23;4.25;;;1.48;;
55641;SDS011;41509;53.108;6.100;2022-10-16T05:30:53;5.57;;;1.50;;
55641;SDS011;41509;53.108;6.100;2022-10-16T05:33:19;2.88;;;1.20;;
55641;SDS011;41509;53.108;6.100;2022-10-16T05:35:46;2.92;;;0.98;;
55641;SDS011;41509;53.108;6.100;2022-10-16T05:38:12;2.20;;;1.27;;
55641;SDS011;41509;53.108;6.100;2022-10-16T05:40:37;1.70;;;0.83;;
55641;SDS011;41509;53.108;6.100;2022-10-16T05:43:03;2.83;;;1.30;;
55641;SDS011;41509;53.108;6.100;2022-10-16T05:45:29;1.97;;;1.20;;
55641;SDS011;41509;53.108;6.100;2022-10-16T05:47:55;2.28;;;1.20;;
55641;SDS011;41509;53.108;6.100;2022-10-16T05:50:20;3.43;;;1.37;;
55641;SDS011;41509;53.108;6.100;2022-10-16T05:52:46;2.33;;;1.07;;
55641;SDS011;41509;53.108;6.100;2022-10-16T05:55:11;2.37;;;1.13;;
55641;SDS011;41509;53.108;6.100;2022-10-16T05:57:37;5.70;;;1.50;;
55641;SDS011;41509;53.108;6.100;2022-10-16T06:00:03;3.78;;;1.50;;
55641;SDS011;41509;53.108;6.100;2022-10-16T06:02:29;3.65;;;1.33;;
55641;SDS011;41509;53.108;6.100;2022-10-16T06:04:55;5.10;;;1.70;;
55641;SDS011;41509;53.108;6.100;2022-10-16T06:07:21;4.93;;;1.58;;
55641;SDS011;41509;53.108;6.100;2022-10-16T06:12:13;2.28;;;1.00;;
55641;SDS011;41509;53.108;6.100;2022-10-16T06:14:39;4.53;;;1.50;;
55641;SDS011;41509;53.108;6.100;2022-10-16T06:17:05;2.20;;;1.47;;
55641;SDS011;41509;53.108;6.100;2022-10-16T06:19:31;5.73;;;1.20;;
55641;SDS011;41509;53.108;6.100;2022-10-16T06:21:56;3.47;;;1.10;;
55641;SDS011;41509;53.108;6.100;2022-10-16T06:24:23;3.47;;;1.33;;
55641;SDS011;41509;53.108;6.100;2022-10-16T06:26:49;2.85;;;1.35;;
55641;SDS011;41509;53.108;6.100;2022-10-16T06:29:15;3.10;;;1.55;;
55641;SDS011;41509;53.108;6.100;2022-10-16T06:31:41;3.27;;;1.27;;
55641;SDS011;41509;53.108;6.100;2022-10-16T06:34:08;5.10;;;1.48;;
55641;SDS011;41509;53.108;6.100;2022-10-16T06:36:35;3.97;;;1.20;;
55641;SDS011;41509;53.108;6.100;2022-10-16T06:39:02;2.28;;;1.02;;
55641;SDS011;41509;53.108;6.100;2022-10-16T06:41:28;2.40;;;1.00;;
55641;SDS011;41509;53.108;6.100;2022-10-16T06:43:53;2.37;;;1.07;;
55641;SDS011;41509;53.108;6.100;2022-10-16T06:46:20;6.83;;;1.20;;
55641;SDS011;41509;53.108;6.100;2022-10-16T06:48:48;3.55;;;1.38;;
55641;SDS011;41509;53.108;6.100;2022-10-16T06:51:15;4.03;;;1.27;;
55641;SDS011;41509;53.108;6.100;2022-10-16T06:53:44;2.55;;;0.98;;
55641;SDS011;41509;53.108;6.100;2022-10-16T06:56:18;2.92;;;1.20;;
55641;SDS011;41509;53.108;6.100;2022-10-16T06:58:45;3.17;;;1.35;;
55641;SDS011;41509;53.108;6.100;2022-10-16T07:01:11;3.47;;;1.17;;
55641;SDS011;41509;53.108;6.100;2022-10-16T07:03:39;3.13;;;1.23;;
55641;SDS011;41509;53.108;6.100;2022-10-16T07:06:06;5.93;;;1.20;;
55641;SDS011;41509;53.108;6.100;2022-10-16T07:08:34;4.65;;;1.10;;
55641;SDS011;41509;53.108;6.100;2022-10-16T07:11:01;6.50;;;1.13;;
55641;SDS011;41509;53.108;6.100;2022-10-16T07:13:28;3.50;;;1.33;;
55641;SDS011;41509;53.108;6.100;2022-10-16T07:15:54;3.93;;;1.00;;
55641;SDS011;41509;53.108;6.100;2022-10-16T07:18:19;3.90;;;1.73;;
55641;SDS011;41509;53.108;6.100;2022-10-16T07:20:46;4.38;;;1.55;;
55641;SDS011;41509;53.108;6.100;2022-10-16T07:23:12;1.80;;;1.03;;
55641;SDS011;41509;53.108;6.100;2022-10-16T07:25:38;4.43;;;1.43;;
55641;SDS011;41509;53.108;6.100;2022-10-16T07:28:03;3.13;;;1.37;;
55641;SDS011;41509;53.108;6.100;2022-10-16T07:30:29;4.47;;;1.00;;
55641;SDS011;41509;53.108;6.100;2022-10-16T07:32:54;2.03;;;1.10;;
55641;SDS011;41509;53.108;6.100;2022-10-16T07:35:20;5.23;;;1.23;;
55641;SDS011;41509;53.108;6.100;2022-10-16T07:37:46;2.03;;;1.20;;
55641;SDS011;41509;53.108;6.100;2022-10-16T07:40:12;5.68;;;1.45;;
55641;SDS011;41509;53.108;6.100;2022-10-16T07:42:38;6.80;;;1.30;;
55641;SDS011;41509;53.108;6.100;2022-10-16T07:45:03;4.85;;;1.30;;
55641;SDS011;41509;53.108;6.100;2022-10-16T07:47:29;2.30;;;1.00;;
55641;SDS011;41509;53.108;6.100;2022-10-16T07:49:55;2.78;;;1.10;;
55641;SDS011;41509;53.108;6.100;2022-10-16T07:52:21;5.03;;;1.40;;
55641;SDS011;41509;53.108;6.100;2022-10-16T07:54:47;4.40;;;1.37;;
55641;SDS011;41509;53.108;6.100;2022-10-16T07:57:12;4.53;;;1.23;;
55641;SDS011;41509;53.108;6.100;2022-10-16T07:59:44;6.45;;;1.45;;
55641;SDS011;41509;53.108;6.100;2022-10-16T08:02:11;3.33;;;0.98;;
55641;SDS011;41509;53.108;6.100;2022-10-16T08:04:37;1.92;;;1.10;;
55641;SDS011;41509;53.108;6.100;2022-10-16T08:09:30;5.30;;;1.17;;
55641;SDS011;41509;53.108;6.100;2022-10-16T08:12:07;3.83;;;1.40;;
55641;SDS011;41509;53.108;6.100;2022-10-16T08:14:35;2.08;;;1.00;;
55641;SDS011;41509;53.108;6.100;2022-10-16T08:17:01;4.28;;;1.95;;
55641;SDS011;41509;53.108;6.100;2022-10-16T08:21:53;4.63;;;1.17;;
55641;SDS011;41509;53.108;6.100;2022-10-16T08:24:18;4.85;;;1.02;;
55641;SDS011;41509;53.108;6.100;2022-10-16T08:26:44;4.78;;;1.13;;
55641;SDS011;41509;53.108;6.100;2022-10-16T08:29:09;6.83;;;1.07;;
55641;SDS011;41509;53.108;6.100;2022-10-16T08:31:35;6.43;;;1.00;;
55641;SDS011;41509;53.108;6.100;2022-10-16T08:34:03;4.43;;;1.00;;
55641;SDS011;41509;53.108;6.100;2022-10-16T08:36:29;6.18;;;0.88;;
55641;SDS011;41509;53.108;6.100;2022-10-16T08:38:55;1.17;;;0.88;;
55641;SDS011;41509;53.108;6.100;2022-10-16T08:48:09;5.95;;;0.80;;
55641;SDS011;41509;53.108;6.100;2022-10-16T08:50:25;2.67;;;0.93;;
55641;SDS011;41509;53.108;6.100;2022-10-16T08:52:53;5.43;;;1.42;;
55641;SDS011;41509;53.108;6.100;2022-10-16T08:55:40;2.85;;;0.80;;
55641;SDS011;41509;53.108;6.100;2022-10-16T08:58:12;4.15;;;1.00;;
55641;SDS011;41509;53.108;6.100;2022-10-16T09:00:39;2.45;;;1.02;;
55641;SDS011;41509;53.108;6.100;2022-10-16T09:03:11;4.78;;;0.90;;
55641;SDS011;41509;53.108;6.100;2022-10-16T09:05:57;4.15;;;1.17;;
55641;SDS011;41509;53.108;6.100;2022-10-16T09:14:32;5.15;;;1.05;;
55641;SDS011;41509;53.108;6.100;2022-10-16T09:17:16;3.35;;;0.90;;
55641;SDS011;41509;53.108;6.100;2022-10-16T09:20:36;5.15;;;1.40;;
55641;SDS011;41509;53.108;6.100;2022-10-16T09:22:51;4.20;;;1.20;;
55641;SDS011;41509;53.108;6.100;2022-10-16T09:25:39;6.38;;;1.00;;
55641;SDS011;41509;53.108;6.100;2022-10-16T09:28:08;6.32;;;1.33;;
55641;SDS011;41509;53.108;6.100;2022-10-16T09:30:35;3.92;;;1.20;;
55641;SDS011;41509;53.108;6.100;2022-10-16T09:33:01;5.32;;;0.80;;
55641;SDS011;41509;53.108;6.100;2022-10-16T09:38:03;6.53;;;1.10;;
55641;SDS011;41509;53.108;6.100;2022-10-16T09:40:30;10.27;;;1.70;;
55641;SDS011;41509;53.108;6.100;2022-10-16T09:43:10;2.25;;;0.80;;
55641;SDS011;41509;53.108;6.100;2022-10-16T09:45:43;5.85;;;1.85;;
55641;SDS011;41509;53.108;6.100;2022-10-16T09:48:17;8.07;;;1.30;;
55641;SDS011;41509;53.108;6.100;2022-10-16T09:50:54;5.78;;;0.85;;
55641;SDS011;41509;53.108;6.100;2022-10-16T09:53:24;5.50;;;1.20;;
55641;SDS011;41509;53.108;6.100;2022-10-16T09:56:02;6.78;;;1.25;;
55641;SDS011;41509;53.108;6.100;2022-10-16T09:58:30;7.68;;;1.02;;
55641;SDS011;41509;53.108;6.100;2022-10-16T10:00:57;4.25;;;0.80;;
55641;SDS011;41509;53.108;6.100;2022-10-16T10:05:58;10.40;;;1.02;;
55641;SDS011;41509;53.108;6.100;2022-10-16T10:08:25;6.18;;;1.48;;
55641;SDS011;41509;53.108;6.100;2022-10-16T10:10:50;8.30;;;1.20;;
55641;SDS011;41509;53.108;6.100;2022-10-16T10:13:21;5.20;;;1.00;;
55641;SDS011;41509;53.108;6.100;2022-10-16T10:15:49;5.32;;;1.38;;
55641;SDS011;41509;53.108;6.100;2022-10-16T10:18:16;3.65;;;1.00;;
55641;SDS011;41509;53.108;6.100;2022-10-16T10:20:46;4.65;;;1.50;;
55641;SDS011;41509;53.108;6.100;2022-10-16T10:23:26;4.95;;;1.35;;
55641;SDS011;41509;53.108;6.100;2022-10-16T10:25:59;4.80;;;1.33;;
55641;SDS011;41509;53.108;6.100;2022-10-16T10:34:01;2.45;;;1.15;;
55641;SDS011;41509;53.108;6.100;2022-10-16T10:36:54;6.78;;;1.10;;
55641;SDS011;41509;53.108;6.100;2022-10-16T10:39:51;6.53;;;1.40;;
55641;SDS011;41509;53.108;6.100;2022-10-16T10:43:30;7.93;;;1.70;;
55641;SDS011;41509;53.108;6.100;2022-10-16T10:45:44;9.50;;;0.80;;
55641;SDS011;41509;53.108;6.100;2022-10-16T10:48:16;6.30;;;1.30;;
55641;SDS011;41509;53.108;6.100;2022-10-16T10:51:08;4.60;;;0.88;;
55641;SDS011;41509;53.108;6.100;2022-10-16T11:02:05;7.28;;;1.10;;
55641;SDS011;41509;53.108;6.100;2022-10-16T11:04:58;7.95;;;1.33;;
55641;SDS011;41509;53.108;6.100;2022-10-16T11:07:49;5.38;;;1.10;;
55641;SDS011;41509;53.108;6.100;2022-10-16T11:10:45;5.30;;;0.63;;
55641;SDS011;41509;53.108;6.100;2022-10-16T11:16:00;8.20;;;1.67;;
55641;SDS011;41509;53.108;6.100;2022-10-16T11:18:39;5.28;;;1.45;;
55641;SDS011;41509;53.108;6.100;2022-10-16T11:21:21;3.50;;;1.10;;
55641;SDS011;41509;53.108;6.100;2022-10-16T11:26:26;8.02;;;1.25;;
55641;SDS011;41509;53.108;6.100;2022-10-16T11:28:56;4.50;;;0.95;;
55641;SDS011;41509;53.108;6.100;2022-10-16T11:34:13;9.65;;;1.25;;
55641;SDS011;41509;53.108;6.100;2022-10-16T11:39:27;8.02;;;2.22;;
55641;SDS011;41509;53.108;6.100;2022-10-16T11:47:30;6.57;;;1.25;;
55641;SDS011;41509;53.108;6.100;2022-10-16T11:55:41;8.18;;;1.17;;
55641;SDS011;41509;53.108;6.100;2022-10-16T12:09:01;6.70;;;1.02;;
55641;SDS011;41509;53.108;6.100;2022-10-16T12:14:07;6.27;;;1.03;;
55641;SDS011;41509;53.108;6.100;2022-10-16T12:19:20;5.70;;;1.15;;
55641;SDS011;41509;53.108;6.100;2022-10-16T12:21:48;6.25;;;1.30;;
55641;SDS011;41509;53.108;6.100;2022-10-16T12:24:27;9.00;;;1.70;;
55641;SDS011;41509;53.108;6.100;2022-10-16T12:26:58;10.65;;;1.48;;
55641;SDS011;41509;53.108;6.100;2022-10-16T12:31:59;11.65;;;1.27;;
55641;SDS011;41509;53.108;6.100;2022-10-16T12:34:28;6.00;;;1.00;;
55641;SDS011;41509;53.108;6.100;2022-10-16T12:37:14;4.45;;;0.90;;
55641;SDS011;41509;53.108;6.100;2022-10-16T12:40:15;4.90;;;0.88;;
55641;SDS011;41509;53.108;6.100;2022-10-16T12:42:50;5.80;;;1.30;;
55641;SDS011;41509;53.108;6.100;2022-10-16T12:45:27;3.22;;;0.68;;
55641;SDS011;41509;53.108;6.100;2022-10-16T12:47:57;4.75;;;1.25;;
55641;SDS011;41509;53.108;6.100;2022-10-16T12:50:27;6.18;;;0.90;;
55641;SDS011;41509;53.108;6.100;2022-10-16T12:52:53;4.97;;;1.38;;
55641;SDS011;41509;53.108;6.100;2022-10-16T12:55:19;9.05;;;1.45;;
55641;SDS011;41509;53.108;6.100;2022-10-16T13:03:31;10.15;;;1.10;;
55641;SDS011;41509;53.108;6.100;2022-10-16T13:11:54;4.97;;;1.17;;
55641;SDS011;41509;53.108;6.100;2022-10-16T13:15:05;6.07;;;1.10;;
55641;SDS011;41509;53.108;6.100;2022-10-16T13:20:46;4.55;;;0.80;;
55641;SDS011;41509;53.108;6.100;2022-10-16T13:26:31;4.82;;;1.13;;
55641;SDS011;41509;53.108;6.100;2022-10-16T13:29:08;3.40;;;0.90;;
55641;SDS011;41509;53.108;6.100;2022-10-16T13:31:36;4.15;;;1.30;;
55641;SDS011;41509;53.108;6.100;2022-10-16T13:34:03;5.13;;;0.75;;
55641;SDS011;41509;53.108;6.100;2022-10-16T13:36:42;9.50;;;1.48;;
55641;SDS011;41509;53.108;6.100;2022-10-16T13:39:13;4.68;;;0.65;;
55641;SDS011;41509;53.108;6.100;2022-10-16T13:41:42;3.88;;;1.00;;
55641;SDS011;41509;53.108;6.100;2022-10-16T13:46:43;7.88;;;0.98;;
55641;SDS011;41509;53.108;6.100;2022-10-16T13:49:16;7.22;;;0.98;;
55641;SDS011;41509;53.108;6.100;2022-10-16T13:51:53;9.65;;;1.00;;
55641;SDS011;41509;53.108;6.100;2022-10-16T13:54:23;7.60;;;1.55;;
55641;SDS011;41509;53.108;6.100;2022-10-16T13:56:54;5.57;;;1.23;;
55641;SDS011;41509;53.108;6.100;2022-10-16T14:01:49;8.07;;;1.05;;
55641;SDS011;41509;53.108;6.100;2022-10-16T14:04:19;6.20;;;1.33;;
55641;SDS011;41509;53.108;6.100;2022-10-16T14:06:45;6.97;;;1.27;;
55641;SDS011;41509;53.108;6.100;2022-10-16T14:11:49;6.32;;;0.93;;
55641;SDS011;41509;53.108;6.100;2022-10-16T14:14:20;3.60;;;0.93;;
55641;SDS011;41509;53.108;6.100;2022-10-16T14:16:47;6.35;;;1.30;;
55641;SDS011;41509;53.108;6.100;2022-10-16T14:21:50;5.32;;;1.08;;
55641;SDS011;41509;53.108;6.100;2022-10-16T14:24:32;7.63;;;1.10;;
55641;SDS011;41509;53.108;6.100;2022-10-16T14:26:59;6.93;;;1.20;;
55641;SDS011;41509;53.108;6.100;2022-10-16T14:29:27;7.15;;;1.05;;
55641;SDS011;41509;53.108;6.100;2022-10-16T14:32:03;5.05;;;1.70;;
55641;SDS011;41509;53.108;6.100;2022-10-16T14:37:05;7.82;;;1.40;;
55641;SDS011;41509;53.108;6.100;2022-10-16T14:39:39;6.68;;;1.70;;
55641;SDS011;41509;53.108;6.100;2022-10-16T14:42:11;5.40;;;1.10;;
55641;SDS011;41509;53.108;6.100;2022-10-16T14:44:41;5.88;;;1.10;;
55641;SDS011;41509;53.108;6.100;2022-10-16T14:47:12;3.17;;;1.08;;
55641;SDS011;41509;53.108;6.100;2022-10-16T14:49:41;4.38;;;1.00;;
55641;SDS011;41509;53.108;6.100;2022-10-16T14:52:11;6.47;;;1.23;;
55641;SDS011;41509;53.108;6.100;2022-10-16T14:54:37;5.40;;;1.08;;
55641;SDS011;41509;53.108;6.100;2022-10-16T14:59:39;2.78;;;0.77;;
55641;SDS011;41509;53.108;6.100;2022-10-16T15:04:55;5.18;;;1.20;;
55641;SDS011;41509;53.108;6.100;2022-10-16T15:07:21;5.60;;;1.38;;
55641;SDS011;41509;53.108;6.100;2022-10-16T15:09:47;5.30;;;0.95;;
55641;SDS011;41509;53.108;6.100;2022-10-16T15:12:12;3.78;;;1.02;;
55641;SDS011;41509;53.108;6.100;2022-10-16T15:14:38;6.10;;;1.40;;
55641;SDS011;41509;53.108;6.100;2022-10-16T15:17:04;5.18;;;1.13;;
55641;SDS011;41509;53.108;6.100;2022-10-16T15:19:29;4.55;;;1.27;;
55641;SDS011;41509;53.108;6.100;2022-10-16T15:21:55;6.15;;;1.10;;
55641;SDS011;41509;53.108;6.100;2022-10-16T15:24:21;9.00;;;1.00;;
55641;SDS011;41509;53.108;6.100;2022-10-16T15:26:47;3.35;;;0.73;;
55641;SDS011;41509;53.108;6.100;2022-10-16T15:29:14;9.43;;;1.23;;
55641;SDS011;41509;53.108;6.100;2022-10-16T15:31:40;10.27;;;1.33;;
55641;SDS011;41509;53.108;6.100;2022-10-16T15:34:08;8.70;;;1.70;;
55641;SDS011;41509;53.108;6.100;2022-10-16T15:36:36;5.30;;;0.90;;
55641;SDS011;41509;53.108;6.100;2022-10-16T15:39:03;7.78;;;3.00;;
55641;SDS011;41509;53.108;6.100;2022-10-16T15:41:29;6.50;;;1.15;;
55641;SDS011;41509;53.108;6.100;2022-10-16T15:43:58;6.55;;;1.83;;
55641;SDS011;41509;53.108;6.100;2022-10-16T15:46:23;7.20;;;1.85;;
55641;SDS011;41509;53.108;6.100;2022-10-16T15:51:16;8.10;;;2.20;;
55641;SDS011;41509;53.108;6.100;2022-10-16T15:53:43;6.07;;;1.08;;
55641;SDS011;41509;53.108;6.100;2022-10-16T15:56:11;3.88;;;1.13;;
55641;SDS011;41509;53.108;6.100;2022-10-16T15:58:38;3.03;;;1.10;;
55641;SDS011;41509;53.108;6.100;2022-10-16T16:01:07;6.65;;;1.40;;
55641;SDS011;41509;53.108;6.100;2022-10-16T16:03:37;6.65;;;1.60;;
55641;SDS011;41509;53.108;6.100;2022-10-16T16:06:06;5.57;;;1.67;;
55641;SDS011;41509;53.108;6.100;2022-10-16T16:08:34;7.65;;;2.13;;
55641;SDS011;41509;53.108;6.100;2022-10-16T16:11:00;9.88;;;2.10;;
55641;SDS011;41509;53.108;6.100;2022-10-16T16:13:31;9.10;;;2.58;;
55641;SDS011;41509;53.108;6.100;2022-10-16T16:15:57;9.38;;;2.67;;
55641;SDS011;41509;53.108;6.100;2022-10-16T16:18:23;7.82;;;2.85;;
55641;SDS011;41509;53.108;6.100;2022-10-16T16:20:49;9.20;;;2.58;;
55641;SDS011;41509;53.108;6.100;2022-10-16T16:23:15;12.38;;;2.60;;
55641;SDS011;41509;53.108;6.100;2022-10-16T16:25:41;8.85;;;2.55;;
55641;SDS011;41509;53.108;6.100;2022-10-16T16:28:08;10.40;;;3.03;;
55641;SDS011;41509;53.108;6.100;2022-10-16T16:30:36;6.75;;;2.83;;
55641;SDS011;41509;53.108;6.100;2022-10-16T16:35:27;9.15;;;2.72;;
55641;SDS011;41509;53.108;6.100;2022-10-16T16:37:53;10.37;;;2.33;;
55641;SDS011;41509;53.108;6.100;2022-10-16T16:40:18;9.80;;;3.07;;
55641;SDS011;41509;53.108;6.100;2022-10-16T16:42:46;10.20;;;2.30;;
55641;SDS011;41509;53.108;6.100;2022-10-16T16:45:13;8.63;;;2.80;;
55641;SDS011;41509;53.108;6.100;2022-10-16T16:47:39;7.43;;;2.20;;
55641;SDS011;41509;53.108;6.100;2022-10-16T16:50:04;7.00;;;1.95;;
55641;SDS011;41509;53.108;6.100;2022-10-16T16:52:31;7.45;;;1.65;;
55641;SDS011;41509;53.108;6.100;2022-10-16T16:54:57;6.45;;;1.52;;
55641;SDS011;41509;53.108;6.100;2022-10-16T16:57:23;7.07;;;2.10;;
55641;SDS011;41509;53.108;6.100;2022-10-16T16:59:49;5.00;;;1.75;;
55641;SDS011;41509;53.108;6.100;2022-10-16T17:02:16;7.85;;;2.35;;
55641;SDS011;41509;53.108;6.100;2022-10-16T17:04:42;9.90;;;2.38;;
55641;SDS011;41509;53.108;6.100;2022-10-16T17:07:08;6.72;;;2.60;;
55641;SDS011;41509;53.108;6.100;2022-10-16T17:09:33;11.48;;;2.85;;
55641;SDS011;41509;53.108;6.100;2022-10-16T17:11:59;8.52;;;1.77;;
55641;SDS011;41509;53.108;6.100;2022-10-16T17:14:25;6.90;;;1.80;;
55641;SDS011;41509;53.108;6.100;2022-10-16T17:16:51;5.60;;;1.37;;
55641;SDS011;41509;53.108;6.100;2022-10-16T17:19:17;9.32;;;1.90;;
55641;SDS011;41509;53.108;6.100;2022-10-16T17:21:44;5.80;;;1.75;;
55641;SDS011;41509;53.108;6.100;2022-10-16T17:24:10;8.95;;;2.92;;
55641;SDS011;41509;53.108;6.100;2022-10-16T17:26:36;9.32;;;2.28;;
55641;SDS011;41509;53.108;6.100;2022-10-16T17:31:30;6.00;;;1.83;;